Flight Track Log - Related Links

Times and Time Zones

All times are in EST time to prevent confusion due to time zone crossing. See the CSN438 flight status page for this flight to view local times or setup timezone preferences in your user account.

Time Position Orientation Groundspeed Altitude Reporting Facility
EST Latitude Longitude Course Direction KTS MPH feet Rate Location/Type
02:51AM 33.9333 -118.4667 263° West 197 227 2,500  Level Southern California TRACON
02:52AM 33.9269 -118.5264 263° West 203 234 3,800 1,473 Climbing Los Angeles Center
02:53AM 33.9203 -118.6161 265° West 273 314 5,200 1,884 Climbing Los Angeles Center
02:54AM 33.9142 -118.7167 266° West 300 345 7,600 2,628 Climbing Los Angeles Center
02:55AM 33.9206 -118.8197 274° West 302 348 10,500 2,231 Climbing Los Angeles Center
02:56AM 33.9547 -118.9253 291° West 341 392 12,100 2,331 Climbing Los Angeles Center
02:57AM 34.0267 -119.0178 313° West 379 436 15,200 2,900 Climbing Los Angeles Center
02:58AM 34.1158 -119.1006 322° Northwest 403 464 17,900 2,678 Climbing Los Angeles Center
02:59AM 34.2086 -119.1878 322° Northwest 421 484 20,600 2,579 Climbing Los Angeles Center
03:00AM 34.3042 -119.2772 322° Northwest 435 501 23,100 2,380 Climbing Los Angeles Center
03:01AM 34.4014 -119.3683 322° Northwest 440 506 25,400 2,132 Climbing Los Angeles Center
03:02AM 34.5011 -119.4642 322° Northwest 451 519 27,400 1,884 Climbing Los Angeles Center
03:03AM 34.6044 -119.5611 322° Northwest 465 535 29,200 1,636 Climbing Los Angeles Center
03:04AM 34.7031 -119.6561 322° Northwest 478 550 30,700 1,850 Climbing Los Angeles Center
03:05AM 34.8086 -119.7561 322° Northwest 479 551 32,900 1,636 Climbing Los Angeles Center
03:06AM 34.9117 -119.8553 322° Northwest 474 545 34,000 545 Climbing Los Angeles Center
03:07AM 35.0133 -119.9553 321° Northwest 471 542 34,000  Level Los Angeles Center
03:08AM 35.1167 -120.0542 322° Northwest 471 542 34,000  Level Los Angeles Center
03:09AM 35.2250 -120.1600 321° Northwest 472 543 34,000 -50 Level Los Angeles Center
03:10AM 35.3261 -120.2581 322° Northwest 468 539 33,900 -50 Descending Los Angeles Center
03:11AM 35.4281 -120.3600 321° Northwest 470 541 33,900 50 Level Los Angeles Center
03:12AM 35.5294 -120.4617 321° Northwest 473 544 34,000 52 Climbing Los Angeles Center
03:13AM 35.6492 -120.5486 329° Northwest 480 552 34,000 -52 Level Oakland Center
03:14AM 35.7644 -120.6292 330° Northwest 478 550 33,900 -50 Descending Oakland Center
03:15AM 35.8786 -120.7139 329° Northwest 478 550 33,900 50 Level Oakland Center
03:16AM 35.9914 -120.7978 329° Northwest 476 548 34,000  Climbing Oakland Center
03:17AM 36.1039 -120.8819 329° Northwest 474 545 33,900  Descending Oakland Center
03:18AM 36.2178 -120.9608 331° Northwest 471 542 34,000 50 Climbing Oakland Center
03:19AM 36.3297 -121.0431 329° Northwest 469 540 34,000  Level Oakland Center
03:20AM 36.4428 -121.1236 330° Northwest 469 540 34,000 -50 Level Oakland Center
03:21AM 36.5556 -121.2064 329° Northwest 470 541 33,900  Descending Oakland Center
03:22AM 36.6678 -121.2883 330° Northwest 469 540 34,000  Climbing Oakland Center
03:23AM 36.7794 -121.3703 330° Northwest 466 536 33,900 -50 Descending Oakland Center
03:24AM 36.8889 -121.4553 328° Northwest 461 531 33,900  Level Oakland Center
03:25AM 37.0044 -121.5333 332° Northwest 473 544 33,900 50 Level Oakland Center
03:26AM 37.1153 -121.6200 328° Northwest 466 536 34,000 50 Climbing Oakland Center
03:27AM 37.2269 -121.7025 330° Northwest 465 535 34,000  Level Oakland Center
03:28AM 37.3378 -121.7833 330° Northwest 461 531 34,000  Level Oakland Center
03:29AM 37.4453 -121.8647 329° Northwest 461 531 34,000  Level Oakland Center
03:30AM 37.5547 -121.9464 329° Northwest 460 529 34,000 -50 Level Oakland Center
03:31AM 37.6644 -122.0292 329° Northwest 460 529 33,900 -50 Descending Oakland Center
03:32AM 37.7736 -122.1122 329° Northwest 462 532 33,900  Level Oakland Center
03:33AM 37.8836 -122.1939 330° Northwest 462 532 33,900 50 Level Oakland Center
03:34AM 37.9925 -122.2764 329° Northwest 463 533 34,000 50 Climbing Oakland Center
03:35AM 38.1011 -122.3597 329° Northwest 463 533 34,000 -50 Level Oakland Center
03:36AM 38.2114 -122.4436 329° Northwest 467 537 33,900 -50 Descending Oakland Center
03:37AM 38.3222 -122.5292 329° Northwest 470 541 33,900 50 Level Oakland Center
03:38AM 38.4339 -122.6144 329° Northwest 471 542 34,000  Climbing Oakland Center
03:39AM 38.5458 -122.7014 329° Northwest 472 543 33,900 -50 Descending Oakland Center
03:40AM 38.6581 -122.7892 329° Northwest 474 545 33,900  Level Oakland Center
03:41AM 38.7694 -122.8767 329° Northwest 473 544 33,900  Level Oakland Center
03:42AM 38.8828 -122.9639 329° Northwest 476 548 33,900 50 Level Oakland Center
03:43AM 38.9953 -123.0525 329° Northwest 477 549 34,000  Climbing Oakland Center
03:44AM 39.1081 -123.1414 329° Northwest 477 549 33,900  Descending Oakland Center
03:45AM 39.2225 -123.2328 328° Northwest 484 557 34,000  Climbing Oakland Center
03:46AM 39.3369 -123.3244 328° Northwest 484 557 33,900  Descending Oakland Center
03:47AM 39.4672 -123.4292 328° Northwest 492 566 34,000  Climbing Oakland Center
03:48AM 39.5850 -123.5175 330° Northwest 491 565 33,900 -50 Descending Oakland Center
03:49AM 39.6975 -123.6119 327° Northwest 485 558 33,900 50 Level Oakland Center
03:50AM 39.8128 -123.7050 328° Northwest 487 560 34,000 50 Climbing Oakland Center
03:51AM 39.9286 -123.7992 328° Northwest 490 564 34,000  Level Oakland Center
03:52AM 40.0450 -123.8936 328° Northwest 493 567 34,000  Level Oakland Center
03:53AM 40.1383 -123.9697 328° Northwest 492 566 34,000  Level Seattle Center
03:54AM 40.2544 -124.0636 328° Northwest 493 567 34,000  Level Seattle Center
03:55AM 40.3839 -124.1703 328° Northwest 497 572 34,000  Level Seattle Center
03:56AM 40.5000 -124.2656 328° Northwest 495 570 34,000 -50 Level Seattle Center
03:57AM 40.6122 -124.3589 328° Northwest 488 562 33,900 -50 Descending Seattle Center
03:58AM 40.7272 -124.4542 328° Northwest 485 558 33,900  Level Seattle Center
03:59AM 40.8689 -124.5756 327° Northwest 501 577 33,900  Level Oakland Center
04:00AM 40.9878 -124.6767 327° Northwest 507 583 33,900  Level Oakland Center
04:01AM 41.1075 -124.7778 328° Northwest 510 587 33,900  Level Oakland Center
04:02AM 41.2064 -124.8578 329° Northwest 516 594 33,900  Level Seattle Center
04:03AM 41.3233 -124.9583 327° Northwest 502 578 33,900 50 Level Seattle Center
04:04AM 41.4408 -125.0567 328° Northwest 499 574 34,000  Climbing Seattle Center
04:05AM 41.5578 -125.1581 327° Northwest 502 578 33,900  Descending Seattle Center
04:06AM 41.6739 -125.2581 327° Northwest 498 573 34,000 50 Climbing Seattle Center
04:07AM 41.7883 -125.3581 327° Northwest 495 570 34,000 -50 Level Seattle Center
04:08AM 41.9047 -125.4597 327° Northwest 497 572 33,900 -50 Descending Seattle Center
04:09AM 42.0225 -125.5647 326° Northwest 504 580 33,900  Level Seattle Center
04:10AM 42.1422 -125.6686 327° Northwest 511 588 33,900 50 Level Seattle Center
04:11AM 42.2608 -125.7736 327° Northwest 512 589 34,000 50 Climbing Seattle Center
04:12AM 42.3764 -125.8767 327° Northwest 503 579 34,000  Level Seattle Center
04:13AM 42.4878 -125.9764 327° Northwest 485 558 34,000 -50 Level Seattle Center
04:14AM 42.6031 -126.0786 327° Northwest 492 566 33,900 -50 Descending Seattle Center
04:15AM 42.7172 -126.1775 328° Northwest 489 563 33,900 50 Level Seattle Center
04:16AM 42.8353 -126.2586 333° Northwest 479 551 34,000 50 Climbing Seattle Center
04:17AM 42.9514 -126.3322 335° Northwest 482 555 34,000  Level Seattle Center
04:31AM 43.4333 -126.6500 334° Northwest 491 565 34,000  Level Oakland Oceanic (ODAPS)
04:59AM 48.0167 -130.0667 331° Northwest 490 564 34,000  Level Vancouver Center
05:00AM 48.1791 -130.1538 331° Northwest 491 565 34,000  Level FlightAware Transoceanic
05:00AM 48.1333 -130.1500 335° Northwest 490 564 34,000  Level Vancouver Center
05:01AM 48.2987 -130.2517 331° Northwest 491 565 34,000  Level FlightAware Transoceanic
05:01AM 48.2500 -130.2667 326° Northwest 490 564 34,000  Level Vancouver Center
05:02AM 48.4182 -130.3500 331° Northwest 491 565 34,000  Level FlightAware Transoceanic
05:02AM 48.3667 -130.3667 330° Northwest 480 552 34,000  Level Vancouver Center
05:03AM 48.5376 -130.4489 331° Northwest 491 565 34,000  Level FlightAware Transoceanic
05:03AM 48.5000 -130.4500 338° Northwest 490 564 34,000  Level Vancouver Center
05:04AM 48.6569 -130.5482 331° Northwest 491 565 34,000  Level FlightAware Transoceanic
05:04AM 48.6000 -130.5500 327° Northwest 480 552 34,000  Level Vancouver Center
05:05AM 48.7167 -130.6333 335° Northwest 480 552 34,000  Level Vancouver Center
05:06AM 48.8500 -130.7500 330° Northwest 490 564 34,000  Level Vancouver Center
05:07AM 48.9500 -130.8500 327° Northwest 480 552 34,000  Level Vancouver Center
05:08AM 49.0833 -130.9500 334° Northwest 480 552 34,000  Level Vancouver Center
05:09AM 49.2000 -131.0667 327° Northwest 490 564 34,000  Level Vancouver Center
05:10AM 49.3000 -131.1500 331° Northwest 490 564 34,000  Level Vancouver Center
05:11AM 49.4333 -131.2500 334° Northwest 490 564 34,000  Level Vancouver Center
05:12AM 49.5500 -131.3500 331° Northwest 490 564 34,000  Level Vancouver Center
05:13AM 49.6667 -131.4667 327° Northwest 490 564 34,000  Level Vancouver Center
05:14AM 49.8000 -131.5667 334° Northwest 490 564 34,000  Level Vancouver Center
05:15AM 49.9000 -131.6667 327° Northwest 490 564 34,000  Level Vancouver Center
05:16AM 50.0333 -131.7833 331° Northwest 490 564 34,000  Level Vancouver Center
05:17AM 50.1500 -131.8833 331° Northwest 490 564 34,000  Level Vancouver Center
05:18AM 50.2667 -131.9833 331° Northwest 490 564 34,000  Level Vancouver Center
05:19AM 50.3667 -132.1000 323° Northwest 490 564 34,000  Level Vancouver Center
05:20AM 50.4833 -132.2333 324° Northwest 500 575 34,000  Level Vancouver Center
05:21AM 50.6167 -132.3333 335° Northwest 490 564 34,000  Level Vancouver Center
05:22AM 50.7167 -132.4667 320° Northwest 500 575 34,000  Level Vancouver Center
05:23AM 50.8333 -132.5667 332° Northwest 490 564 34,000  Level Vancouver Center
05:24AM 50.9500 -132.7000 324° Northwest 490 564 34,000  Level Vancouver Center
05:25AM 51.0667 -132.8000 332° Northwest 480 552 34,000  Level Vancouver Center
05:26AM 51.1667 -132.9167 324° Northwest 480 552 34,000  Level Vancouver Center
05:27AM 51.2833 -133.0167 332° Northwest 480 552 34,000  Level Vancouver Center
05:28AM 51.4000 -133.1500 325° Northwest 490 564 34,000  Level Vancouver Center
05:29AM 51.5167 -133.2667 328° Northwest 490 564 34,000  Level Vancouver Center
05:30AM 51.6167 -133.3833 324° Northwest 480 552 34,000  Level Vancouver Center
05:31AM 51.7333 -133.5000 328° Northwest 490 564 34,000  Level Vancouver Center
05:32AM 51.8500 -133.6333 325° Northwest 480 552 34,000  Level Vancouver Center
05:33AM 51.9667 -133.7333 332° Northwest 490 564 34,000  Level Vancouver Center
05:34AM 52.0667 -133.8667 321° Northwest 490 564 34,000  Level Vancouver Center
05:35AM 52.2000 -133.9833 332° Northwest 490 564 34,000  Level Vancouver Center
05:36AM 52.3000 -134.1167 321° Northwest 490 564 34,000  Level Vancouver Center
05:37AM 52.4000 -134.2500 321° Northwest 490 564 34,000  Level Vancouver Center
05:38AM 52.5167 -134.3500 332° Northwest 490 564 34,000  Level Vancouver Center
05:39AM 52.6333 -134.5000 322° Northwest 490 564 34,000  Level Vancouver Center
05:40AM 52.7500 -134.6000 333° Northwest 490 564 34,000  Level Vancouver Center
05:41AM 52.8667 -134.7500 322° Northwest 490 564 34,000  Level Vancouver Center
05:42AM 52.9667 -134.8667 325° Northwest 490 564 34,000  Level Vancouver Center
05:43AM 53.0833 -135.0000 326° Northwest 490 564 34,000  Level Vancouver Center
05:44AM 53.2000 -135.1167 329° Northwest 490 564 34,000  Level Vancouver Center
05:45AM 53.3000 -135.2500 321° Northwest 490 564 34,000  Level Vancouver Center
05:46AM 53.4167 -135.4000 323° Northwest 490 564 34,000  Level Vancouver Center
05:47AM 53.5333 -135.5167 329° Northwest 490 564 34,000  Level Vancouver Center
05:48AM 53.6333 -135.6500 322° Northwest 490 564 34,000  Level Vancouver Center
05:49AM 53.7667 -135.7833 329° Northwest 500 575 34,000  Level Vancouver Center
05:50AM 53.8667 -135.9167 322° Northwest 490 564 34,000  Level Vancouver Center
05:51AM 53.9333 -135.9167 360° North 500 575 34,000  Level Anchorage Center
05:52AM 54.0500 -136.0667 323° Northwest 490 564 34,000  Level Anchorage Center
05:53AM 54.1333 -136.2000 317° Northwest 490 564 34,000  Level Anchorage Center
05:54AM 54.2333 -136.3667 316° Northwest 490 564 34,000  Level Anchorage Center
05:55AM 54.3333 -136.5167 319° Northwest 490 564 34,000  Level Anchorage Center
05:56AM 54.4333 -136.6833 316° Northwest 490 564 34,000  Level Anchorage Center
05:57AM 54.5333 -136.8500 316° Northwest 490 564 34,000  Level Anchorage Center
05:58AM 54.6333 -137.0000 319° Northwest 490 564 34,000  Level Anchorage Center
05:59AM 54.7333 -137.1667 316° Northwest 480 552 34,000  Level Anchorage Center
06:00AM 54.8333 -137.3167 319° Northwest 490 564 34,000  Level Anchorage Center
06:01AM 54.9333 -137.4833 316° Northwest 500 575 34,000  Level Anchorage Center
06:02AM 55.0333 -137.6500 316° Northwest 480 552 34,000 347 Level Anchorage Center
06:03AM 55.1333 -137.8167 316° Northwest 490 564 34,700 1,000 Climbing Anchorage Center
06:04AM 55.2500 -138.0167 316° Northwest 490 564 36,000 645 Climbing Anchorage Center
06:05AM 55.3500 -138.1833 317° Northwest 490 564 36,000  Level Anchorage Center
06:06AM 55.4500 -138.3500 317° Northwest 480 552 36,000  Level Anchorage Center
06:07AM 55.5333 -138.5000 315° West 480 552 36,000  Level Anchorage Center
06:08AM 55.6333 -138.6667 317° Northwest 480 552 36,000  Level Anchorage Center
06:09AM 55.7333 -138.8333 317° Northwest 480 552 36,000  Level Anchorage Center
06:10AM 55.8333 -139.0000 317° Northwest 480 552 36,000  Level Anchorage Center
06:11AM 55.9333 -139.1833 314° West 490 564 36,000  Level Anchorage Center
06:12AM 56.0167 -139.3500 312° West 480 552 36,000  Level Anchorage Center
06:13AM 56.1167 -139.5167 317° Northwest 480 552 36,000  Level Anchorage Center
06:14AM 56.2167 -139.6833 317° Northwest 470 541 36,000  Level Anchorage Center
06:15AM 56.3000 -139.8667 309° West 480 552 36,000  Level Anchorage Center
06:16AM 56.4000 -140.0333 317° Northwest 480 552 36,000  Level Anchorage Center
06:17AM 56.5000 -140.2000 317° Northwest 490 564 36,000  Level Anchorage Center
06:18AM 56.5833 -140.3833 310° West 480 552 36,000  Level Anchorage Center
06:19AM 56.6833 -140.5500 318° Northwest 480 552 36,000  Level Anchorage Center
06:20AM 56.7667 -140.7333 310° West 490 564 36,000  Level Anchorage Center
06:21AM 56.8667 -140.9000 318° Northwest 490 564 36,000  Level Anchorage Center
06:22AM 56.9667 -141.0833 315° West 490 564 36,000  Level Anchorage Center
06:23AM 57.0500 -141.2667 310° West 490 564 36,000  Level Anchorage Center
06:24AM 57.1500 -141.4500 315° West 480 552 36,000  Level Anchorage Center
06:25AM 57.2333 -141.6333 310° West 480 552 36,000  Level Anchorage Center
06:26AM 57.3333 -141.8167 315° West 490 564 36,000  Level Anchorage Center
06:27AM 57.4333 -142.0000 315° West 490 564 36,000  Level Anchorage Center
06:28AM 57.5167 -142.1833 310° West 480 552 36,000  Level Anchorage Center
06:29AM 57.6167 -142.3667 316° Northwest 480 552 36,000  Level Anchorage Center
06:30AM 57.7000 -142.5500 310° West 490 564 36,000  Level Anchorage Center
06:31AM 57.8000 -142.7500 313° West 480 552 36,000  Level Anchorage Center
06:32AM 57.8833 -142.9333 311° West 480 552 36,000  Level Anchorage Center
06:33AM 57.9833 -143.1333 313° West 470 541 36,000  Level Anchorage Center
06:34AM 58.0667 -143.3167 311° West 480 552 36,000  Level Anchorage Center
06:35AM 58.1667 -143.5167 314° West 480 552 36,000  Level Anchorage Center
06:36AM 58.2500 -143.7000 311° West 480 552 36,000  Level Anchorage Center
06:37AM 58.3333 -143.8833 311° West 470 541 36,000  Level Anchorage Center
06:38AM 58.4333 -144.0833 314° West 480 552 36,000  Level Anchorage Center
06:39AM 58.5167 -144.2833 309° West 480 552 36,000  Level Anchorage Center
06:40AM 58.6000 -144.4833 309° West 480 552 36,000  Level Anchorage Center
06:41AM 58.7000 -144.6667 316° Northwest 480 552 36,000  Level Anchorage Center
06:42AM 58.7833 -144.8667 309° West 480 552 36,000  Level Anchorage Center
06:43AM 58.8667 -145.0833 307° West 490 564 36,000  Level Anchorage Center
06:44AM 58.9667 -145.2833 314° West 480 552 36,000  Level Anchorage Center
06:45AM 59.0500 -145.4833 309° West 490 564 36,000  Level Anchorage Center
06:46AM 59.1333 -145.6833 309° West 490 564 36,000  Level Anchorage Center
06:47AM 59.2167 -145.9000 307° West 490 564 36,000  Level Anchorage Center
06:48AM 59.3167 -146.1000 314° West 500 575 36,000  Level Anchorage Center
06:49AM 59.4000 -146.3000 309° West 500 575 36,000  Level Anchorage Center
06:50AM 59.5000 -146.5167 312° West 500 575 36,000  Level Anchorage Center
06:51AM 59.6000 -146.6833 320° Northwest 500 575 36,000  Level Anchorage Center
06:52AM 59.7000 -146.8833 315° West 510 587 36,000  Level Anchorage Center
06:53AM 59.8000 -147.0833 315° West 500 575 36,000  Level Anchorage Center
06:54AM 59.9000 -147.2833 315° West 510 587 36,000  Level Anchorage Center
06:55AM 60.0000 -147.4833 315° West 520 598 36,000  Level Anchorage Center
06:56AM 60.1000 -147.6833 315° West 510 587 36,000  Level Anchorage Center
06:57AM 60.2000 -147.9000 313° West 520 598 36,000  Level Anchorage Center
06:58AM 60.3167 -148.1500 313° West 530 610 36,000  Level Anchorage Center
06:59AM 60.4167 -148.3500 315° West 520 598 36,000  Level Anchorage Center
07:00AM 60.5000 -148.5333 313° West 520 598 36,000  Level Anchorage Center
07:01AM 60.6167 -148.7667 316° Northwest 520 598 36,000  Level Anchorage Center
07:02AM 60.7167 -148.9833 313° West 510 587 36,000  Level Anchorage Center
07:03AM 60.8167 -149.1833 316° Northwest 520 598 36,000  Level Anchorage Center
07:04AM 60.9167 -149.4000 314° West 520 598 36,000  Level Anchorage Center
07:05AM 61.0167 -149.6167 314° West 520 598 36,000  Level Anchorage Center
07:06AM 61.1167 -149.8333 314° West 520 598 36,000  Level Anchorage Center
07:07AM 61.2000 -150.0667 307° West 510 587 36,000  Level Anchorage Center
07:08AM 61.3000 -150.3500 306° West 510 587 36,000  Level Anchorage Center
07:09AM 61.3833 -150.5833 307° West 500 575 36,000  Level Anchorage Center
07:10AM 61.4667 -150.8167 307° West 490 564 36,000  Level Anchorage Center
07:11AM 61.5500 -151.0500 307° West 500 575 36,000  Level Anchorage Center
07:12AM 61.6167 -151.3000 299° West 500 575 36,000  Level Anchorage Center
07:13AM 61.7000 -151.5333 307° West 500 575 36,000  Level Anchorage Center
07:14AM 61.8000 -151.8000 309° West 520 598 36,000  Level Anchorage Center
07:15AM 61.8667 -152.0500 300° West 520 598 36,000  Level Anchorage Center
07:16AM 61.9667 -152.3167 309° West 520 598 36,000  Level Anchorage Center
07:17AM 62.0333 -152.5667 300° West 520 598 36,000  Level Anchorage Center
07:18AM 62.1167 -152.8167 306° West 520 598 36,000  Level Anchorage Center
07:19AM 62.2000 -153.0667 306° West 530 610 36,000  Level Anchorage Center
07:20AM 62.2833 -153.3333 304° West 530 610 36,000  Level Anchorage Center
07:21AM 62.3500 -153.6000 298° West 520 598 36,000  Level Anchorage Center
07:22AM 62.4333 -153.8667 304° West 520 598 36,000  Level Anchorage Center
07:23AM 62.5167 -154.1167 306° West 510 587 36,000  Level Anchorage Center
07:24AM 62.6000 -154.3833 304° West 510 587 36,000  Level Anchorage Center
07:25AM 62.6667 -154.6500 299° West 510 587 36,000  Level Anchorage Center
07:26AM 62.7500 -154.9167 304° West 530 610 36,000  Level Anchorage Center
07:27AM 62.8333 -155.2000 303° West 520 598 36,000  Level Anchorage Center
07:28AM 62.9000 -155.4500 300° West 510 587 36,000  Level Anchorage Center
07:29AM 62.9833 -155.7667 300° West 500 575 36,000  Level Anchorage Center
07:30AM 63.0333 -156.0500 291° West 500 575 36,000  Level Anchorage Center
07:31AM 63.0833 -156.3167 293° West 510 587 36,000  Level Anchorage Center
07:32AM 63.1500 -156.6000 298° West 490 564 36,000  Level Anchorage Center
07:33AM 63.2000 -156.8833 291° West 500 575 36,000  Level Anchorage Center
07:34AM 63.2667 -157.1667 298° West 500 575 36,000  Level Anchorage Center
07:35AM 63.3167 -157.4500 292° West 500 575 36,000  Level Anchorage Center
07:36AM 63.3667 -157.7500 291° West 510 587 36,000  Level Anchorage Center
07:37AM 63.4333 -158.0333 298° West 510 587 36,000  Level Anchorage Center
07:38AM 63.4833 -158.3333 291° West 510 587 36,000  Level Anchorage Center
07:39AM 63.5333 -158.6167 292° West 500 575 36,000  Level Anchorage Center
07:40AM 63.5833 -158.9167 291° West 500 575 36,000  Level Anchorage Center
07:41AM 63.6333 -159.2000 292° West 500 575 36,000  Level Anchorage Center
07:42AM 63.6833 -159.5000 291° West 500 575 36,000  Level Anchorage Center
07:43AM 63.7333 -159.7833 292° West 500 575 36,000  Level Anchorage Center
07:44AM 63.7833 -160.0833 291° West 500 575 36,000  Level Anchorage Center
07:45AM 63.8333 -160.3833 291° West 500 575 36,000  Level Anchorage Center
07:46AM 63.8833 -160.6833 291° West 500 575 36,000  Level Anchorage Center
07:47AM 63.9333 -160.9833 291° West 500 575 36,000  Level Anchorage Center
07:48AM 63.9833 -161.2833 291° West 500 575 36,000  Level Anchorage Center
07:49AM 64.0167 -161.5833 284° West 500 575 36,000  Level Anchorage Center
07:50AM 64.0667 -161.8833 291° West 500 575 36,000  Level Anchorage Center
07:51AM 64.1000 -162.2333 282° West 490 564 36,000  Level Anchorage Center
07:52AM 64.1500 -162.5333 291° West 490 564 36,000  Level Anchorage Center
07:53AM 64.1833 -162.8500 284° West 500 575 36,000  Level Anchorage Center
07:54AM 64.2333 -163.1500 291° West 510 587 36,000  Level Anchorage Center
07:55AM 64.2667 -163.4667 284° West 500 575 36,000  Level Anchorage Center
07:56AM 64.3000 -163.7667 284° West 500 575 36,000  Level Anchorage Center
07:57AM 64.3500 -164.0833 290° West 490 564 36,000  Level Anchorage Center
07:58AM 64.3833 -164.3833 285° West 500 575 36,000  Level Anchorage Center
07:59AM 64.4167 -164.7000 284° West 500 575 36,000  Level Anchorage Center
08:00AM 64.4500 -165.0167 284° West 490 564 36,000  Level Anchorage Center
08:01AM 64.4833 -165.3167 285° West 490 564 36,000  Level Anchorage Center
08:02AM 64.4833 -165.6333 270° West 480 552 36,000  Level Anchorage Center
08:04AM 64.4833 -165.9667 270° West 500 575 36,000  Level Anchorage Center
08:05AM 64.4833 -166.2833 270° West 490 564 36,000  Level Anchorage Center
08:06AM 64.4833 -166.6000 270° West 490 564 36,000  Level Anchorage Center
08:07AM 64.4833 -166.9333 270° West 500 575 36,000  Level Anchorage Center
08:08AM 64.4667 -167.2500 263° West 490 564 36,000  Level Anchorage Center
08:09AM 64.4667 -167.5667 270° West 490 564 36,000  Level Anchorage Center
08:10AM 64.4667 -167.8833 270° West 490 564 36,000  Level Anchorage Center
08:11AM 64.4500 -168.2000 263° West 500 575 36,000  Level Anchorage Center
08:12AM 64.4500 -168.5167 270° West 490 564 36,000  Level Anchorage Center
08:13AM 64.4500 -168.8500 270° West 490 564 36,000  Level Anchorage Center
08:14AM 64.4333 -169.1667 263° West 490 564 36,000  Level Anchorage Center
08:15AM 64.4333 -169.4833 270° West 490 564 36,000  Level Anchorage Center
08:16AM 64.4333 -169.8000 270° West 490 564 36,000  Level Anchorage Center
08:17AM 64.4167 -170.1167 263° West 490 564 36,000  Level Anchorage Center
08:18AM 64.4167 -170.4167 270° West 480 552 36,000  Level Anchorage Center
08:19AM 64.4000 -170.7333 263° West 480 552 36,000  Level Anchorage Center
08:20AM 64.3833 -171.0500 263° West 490 564 36,000  Level Anchorage Center
08:21AM 64.3833 -171.3667 270° West 490 564 36,000  Level Anchorage Center
08:22AM 64.3667 -171.6833 263° West 490 564 36,000  Level Anchorage Center
08:24AM 64.3684 -172.2630 271° West  Level FlightAware Approximate
08:31AM 64.3668 -174.3982 271° West  Level FlightAware Approximate
08:32AM 64.3872 -174.6992 280° West  Level FlightAware Approximate
08:33AM 64.4098 -175.0000 280° West  Level FlightAware Approximate
08:34AM 64.4317 -175.3014 280° West  Level FlightAware Approximate
08:35AM 64.4531 -175.6032 279° West  Level FlightAware Approximate
08:36AM 64.4734 -175.9057 278° West  Level FlightAware Approximate
08:37AM 64.4921 -176.2089 278° West  Level FlightAware Approximate
08:38AM 64.5102 -176.5125 278° West  Level FlightAware Approximate
08:39AM 64.5277 -176.8165 278° West  Level FlightAware Approximate
08:40AM 64.5446 -177.1209 277° West  Level FlightAware Approximate
08:41AM 64.5609 -177.4257 277° West  Level FlightAware Approximate
08:42AM 64.5765 -177.7308 277° West  Level FlightAware Approximate
08:43AM 64.5915 -178.0363 277° West  Level FlightAware Approximate
08:44AM 64.6058 -178.3421 276° West  Level FlightAware Approximate
08:45AM 64.6191 -178.6483 275° West  Level FlightAware Approximate
08:46AM 64.6303 -178.9551 275° West  Level FlightAware Approximate
08:47AM 64.6408 -179.2621 275° West  Level FlightAware Approximate
08:48AM 64.6507 -179.5694 274° West  Level FlightAware Approximate
08:49AM 64.6599 -179.8769 274° West  Level FlightAware Approximate
08:50AM 64.6693 179.8155 275° West  Level FlightAware Approximate
08:51AM 64.6806 179.5081 275° West  Level FlightAware Approximate
08:52AM 64.6913 179.2005 275° West  Level FlightAware Approximate
08:53AM 64.7013 178.8927 275° West  Level FlightAware Approximate
08:54AM 64.7107 178.5847 274° West  Level FlightAware Approximate
08:55AM 64.7195 178.2764 274° West  Level FlightAware Approximate
08:56AM 64.7276 177.9679 274° West  Level FlightAware Approximate
08:57AM 64.7344 177.6592 272° West  Level FlightAware Approximate
08:58AM 64.7382 177.3502 272° West  Level FlightAware Approximate
08:59AM 64.7414 177.0410 272° West  Level FlightAware Approximate
09:00AM 64.7440 176.7318 271° West  Level FlightAware Approximate
09:01AM 64.7459 176.4226 271° West  Level FlightAware Approximate
09:02AM 64.7471 176.1133 271° West  Level FlightAware Approximate
09:03AM 64.7478 175.8040 270° West  Level FlightAware Approximate
09:04AM 64.7477 175.4947 270° West  Level FlightAware Approximate
09:05AM 64.7471 175.1854 270° West  Level FlightAware Approximate
09:06AM 64.7458 174.8761 270° West  Level FlightAware Approximate
09:07AM 64.7438 174.5668 269° West  Level FlightAware Approximate
09:08AM 64.7412 174.2576 269° West  Level FlightAware Approximate
09:09AM 64.7380 173.9485 269° West  Level FlightAware Approximate
09:10AM 64.7341 173.6394 268° West  Level FlightAware Approximate
09:11AM 64.7296 173.3305 268° West  Level FlightAware Approximate
09:12AM 64.7244 173.0217 268° West  Level FlightAware Approximate
09:13AM 64.7186 172.7129 268° West  Level FlightAware Approximate
09:14AM 64.7133 172.4042 268° West  Level FlightAware Approximate
09:15AM 64.7078 172.0956 268° West  Level FlightAware Approximate
09:16AM 64.7017 171.7871 267° West  Level FlightAware Approximate
09:17AM 64.6949 171.4788 267° West  Level FlightAware Approximate
09:18AM 64.6875 171.1706 267° West  Level FlightAware Approximate
09:19AM 64.6795 170.8626 267° West  Level FlightAware Approximate
09:20AM 64.6708 170.5547 266° West  Level FlightAware Approximate
09:21AM 64.6323 170.2669 242° Southwest  Level FlightAware Approximate
09:22AM 64.5696 169.9962 242° Southwest  Level FlightAware Approximate
09:23AM 64.5064 169.7267 242° Southwest  Level FlightAware Approximate
09:24AM 64.4428 169.4585 241° Southwest  Level FlightAware Approximate
09:25AM 64.3786 169.1916 241° Southwest  Level FlightAware Approximate
09:26AM 64.3140 168.9258 241° Southwest  Level FlightAware Approximate
09:27AM 64.2489 168.6614 241° Southwest  Level FlightAware Approximate
09:28AM 64.1833 168.3981 240° Southwest  Level FlightAware Approximate
09:29AM 64.1172 168.1362 240° Southwest  Level FlightAware Approximate
09:30AM 64.0507 167.8754 240° Southwest  Level FlightAware Approximate
09:31AM 63.9837 167.6160 240° Southwest  Level FlightAware Approximate
09:32AM 63.9162 167.3577 239° Southwest  Level FlightAware Approximate
09:33AM 63.8483 167.1007 239° Southwest  Level FlightAware Approximate
09:34AM 63.7799 166.8450 239° Southwest  Level FlightAware Approximate
09:35AM 63.7111 166.5905 239° Southwest  Level FlightAware Approximate
09:36AM 63.6418 166.3372 238° Southwest  Level FlightAware Approximate
09:37AM 63.5721 166.0852 238° Southwest  Level FlightAware Approximate
09:38AM 63.5019 165.8344 238° Southwest  Level FlightAware Approximate
09:39AM 63.4313 165.5848 238° Southwest  Level FlightAware Approximate
09:40AM 63.3606 165.3360 238° Southwest  Level FlightAware Approximate
09:41AM 63.2901 165.0876 238° Southwest  Level FlightAware Approximate
09:42AM 63.2191 164.8404 238° Southwest  Level FlightAware Approximate
09:43AM 63.1477 164.5945 237° Southwest  Level FlightAware Approximate
09:44AM 63.0758 164.3497 237° Southwest  Level FlightAware Approximate
09:45AM 63.0035 164.1063 236° Southwest  Level FlightAware Approximate
09:46AM 62.9301 163.8650 236° Southwest  Level FlightAware Approximate
09:47AM 62.8563 163.6250 236° Southwest  Level FlightAware Approximate
09:48AM 62.7821 163.3861 236° Southwest  Level FlightAware Approximate
09:49AM 62.7075 163.1484 236° Southwest  Level FlightAware Approximate
09:50AM 62.6325 162.9119 235° Southwest  Level FlightAware Approximate
09:51AM 62.5571 162.6766 235° Southwest  Level FlightAware Approximate
09:52AM 62.4813 162.4425 235° Southwest  Level FlightAware Approximate
09:53AM 62.4051 162.2096 235° Southwest  Level FlightAware Approximate
09:54AM 62.3286 161.9779 235° Southwest  Level FlightAware Approximate
09:55AM 62.2516 161.7474 234° Southwest  Level FlightAware Approximate
09:56AM 62.1743 161.5180 234° Southwest  Level FlightAware Approximate
09:57AM 62.0966 161.2899 234° Southwest  Level FlightAware Approximate
09:58AM 62.0185 161.0628 234° Southwest  Level FlightAware Approximate
09:59AM 61.9400 160.8370 234° Southwest  Level FlightAware Approximate
10:00AM 61.8612 160.6123 233° Southwest  Level FlightAware Approximate
10:01AM 61.7940 160.3729 243° Southwest  Level FlightAware Approximate
10:02AM 61.7328 160.1257 242° Southwest  Level FlightAware Approximate
10:03AM 61.6712 159.8796 242° Southwest  Level FlightAware Approximate
10:04AM 61.6091 159.6344 242° Southwest  Level FlightAware Approximate
10:05AM 61.5466 159.3902 242° Southwest  Level FlightAware Approximate
10:06AM 61.4837 159.1471 242° Southwest  Level FlightAware Approximate
10:07AM 61.4203 158.9048 241° Southwest  Level FlightAware Approximate
10:08AM 61.3566 158.6636 241° Southwest  Level FlightAware Approximate
10:09AM 61.2924 158.4234 241° Southwest  Level FlightAware Approximate
10:10AM 61.2277 158.1841 241° Southwest  Level FlightAware Approximate
10:11AM 61.1627 157.9459 241° Southwest  Level FlightAware Approximate
10:12AM 61.0972 157.7086 240° Southwest  Level FlightAware Approximate
10:13AM 61.0313 157.4723 240° Southwest  Level FlightAware Approximate
10:14AM 60.9650 157.2370 240° Southwest  Level FlightAware Approximate
10:15AM 60.8983 157.0026 240° Southwest  Level FlightAware Approximate
10:16AM 60.8312 156.7693 240° Southwest  Level FlightAware Approximate
10:17AM 60.7637 156.5369 239° Southwest  Level FlightAware Approximate
10:18AM 60.6958 156.3055 239° Southwest  Level FlightAware Approximate
10:19AM 60.6274 156.0751 239° Southwest  Level FlightAware Approximate
10:20AM 60.5587 155.8456 239° Southwest  Level FlightAware Approximate
10:21AM 60.4896 155.6172 239° Southwest  Level FlightAware Approximate
10:22AM 60.4201 155.3897 238° Southwest  Level FlightAware Approximate
10:23AM 60.3503 155.1631 238° Southwest  Level FlightAware Approximate
10:24AM 60.2800 154.9376 238° Southwest  Level FlightAware Approximate
10:25AM 60.2094 154.7130 238° Southwest  Level FlightAware Approximate
10:26AM 60.1384 154.4894 238° Southwest  Level FlightAware Approximate
10:27AM 60.0670 154.2668 237° Southwest  Level FlightAware Approximate
10:28AM 59.9952 154.0452 237° Southwest  Level FlightAware Approximate
10:29AM 59.9230 153.8244 237° Southwest  Level FlightAware Approximate
10:30AM 59.8505 153.6047 237° Southwest  Level FlightAware Approximate
10:31AM 59.7776 153.3859 237° Southwest  Level FlightAware Approximate
10:32AM 59.7044 153.1681 236° Southwest  Level FlightAware Approximate
10:33AM 59.6308 152.9512 236° Southwest  Level FlightAware Approximate
10:34AM 59.5568 152.7353 236° Southwest  Level FlightAware Approximate
10:35AM 59.4825 152.5204 236° Southwest  Level FlightAware Approximate
10:36AM 59.4078 152.3063 236° Southwest  Level FlightAware Approximate
10:37AM 59.3328 152.0932 235° Southwest  Level FlightAware Approximate
10:38AM 59.2575 151.8811 235° Southwest  Level FlightAware Approximate
10:39AM 59.1818 151.6699 235° Southwest  Level FlightAware Approximate
10:40AM 59.1057 151.4597 235° Southwest  Level FlightAware Approximate
10:41AM 59.0294 151.2503 235° Southwest  Level FlightAware Approximate
10:42AM 58.9526 151.0419 235° Southwest  Level FlightAware Approximate
10:43AM 58.8756 150.8345 234° Southwest  Level FlightAware Approximate
10:44AM 58.7982 150.6279 234° Southwest  Level FlightAware Approximate
10:45AM 58.7205 150.4223 234° Southwest  Level FlightAware Approximate
10:46AM 58.6425 150.2176 234° Southwest  Level FlightAware Approximate
10:47AM 58.5641 150.0138 234° Southwest  Level FlightAware Approximate
10:48AM 58.4854 149.8109 233° Southwest  Level FlightAware Approximate
10:49AM 58.4064 149.6089 233° Southwest  Level FlightAware Approximate
10:50AM 58.3271 149.4078 233° Southwest  Level FlightAware Approximate
10:51AM 58.2475 149.2077 233° Southwest  Level FlightAware Approximate
10:52AM 58.1675 149.0084 233° Southwest  Level FlightAware Approximate
10:53AM 58.0873 148.8100 233° Southwest  Level FlightAware Approximate
10:54AM 58.0067 148.6125 232° Southwest  Level FlightAware Approximate
10:55AM 57.9259 148.4160 232° Southwest  Level FlightAware Approximate
10:56AM 57.8447 148.2202 232° Southwest  Level FlightAware Approximate
10:57AM 57.7632 148.0254 232° Southwest  Level FlightAware Approximate
10:58AM 57.6815 147.8315 232° Southwest  Level FlightAware Approximate
10:59AM 57.5994 147.6384 232° Southwest  Level FlightAware Approximate
11:00AM 57.5171 147.4462 231° Southwest  Level FlightAware Approximate
11:01AM 57.4344 147.2549 231° Southwest  Level FlightAware Approximate
11:02AM 57.3515 147.0644 231° Southwest  Level FlightAware Approximate
11:03AM 57.2683 146.8748 231° Southwest  Level FlightAware Approximate
11:04AM 57.1848 146.6860 231° Southwest  Level FlightAware Approximate
11:05AM 57.1010 146.4981 231° Southwest  Level FlightAware Approximate
11:06AM 57.0169 146.3111 231° Southwest  Level FlightAware Approximate
11:07AM 56.9326 146.1248 230° Southwest  Level FlightAware Approximate
11:08AM 56.8480 145.9395 230° Southwest  Level FlightAware Approximate
11:09AM 56.7631 145.7549 230° Southwest  Level FlightAware Approximate
11:10AM 56.6779 145.5712 230° Southwest  Level FlightAware Approximate
11:11AM 56.5925 145.3884 230° Southwest  Level FlightAware Approximate
11:12AM 56.5068 145.2063 230° Southwest  Level FlightAware Approximate
11:13AM 56.4208 145.0251 229° Southwest  Level FlightAware Approximate
11:14AM 56.3346 144.8447 229° Southwest  Level FlightAware Approximate
11:15AM 56.2481 144.6651 229° Southwest  Level FlightAware Approximate
11:16AM 56.1614 144.4864 229° Southwest  Level FlightAware Approximate
11:17AM 56.0744 144.3084 229° Southwest  Level FlightAware Approximate
11:18AM 55.9872 144.1312 229° Southwest  Level FlightAware Approximate
11:19AM 55.8997 143.9549 229° Southwest  Level FlightAware Approximate
11:20AM 55.8119 143.7793 228° Southwest  Level FlightAware Approximate
11:21AM 55.7239 143.6045 228° Southwest  Level FlightAware Approximate
11:22AM 55.6356 143.4305 228° Southwest  Level FlightAware Approximate
11:23AM 55.5471 143.2573 228° Southwest  Level FlightAware Approximate
11:24AM 55.4584 143.0849 228° Southwest  Level FlightAware Approximate
11:25AM 55.3694 142.9133 228° Southwest  Level FlightAware Approximate
11:26AM 55.2802 142.7424 228° Southwest  Level FlightAware Approximate
11:27AM 55.1907 142.5723 227° Southwest  Level FlightAware Approximate
11:28AM 55.1010 142.4029 227° Southwest  Level FlightAware Approximate
11:29AM 55.0111 142.2343 227° Southwest  Level FlightAware Approximate
11:30AM 54.9209 142.0665 227° Southwest  Level FlightAware Approximate
11:31AM 54.8306 141.8994 227° Southwest  Level FlightAware Approximate
11:33AM 54.5778 141.4382 227° Southwest  Level FlightAware Approximate
11:35AM 54.4667 141.2385 226° Southwest  Level FlightAware Approximate
11:36AM 54.3752 141.0751 226° Southwest  Level FlightAware Approximate
11:37AM 54.2835 140.9124 226° Southwest  Level FlightAware Approximate
11:38AM 54.1915 140.7505 226° Southwest  Level FlightAware Approximate
11:39AM 54.0993 140.5893 226° Southwest  Level FlightAware Approximate
11:40AM 54.0069 140.4288 226° Southwest  Level FlightAware Approximate
11:41AM 53.9143 140.2690 225° Southwest  Level FlightAware Approximate
11:42AM 53.8215 140.1099 225° Southwest  Level FlightAware Approximate
11:43AM 53.7285 139.9515 225° Southwest  Level FlightAware Approximate
11:44AM 53.6353 139.7938 225° Southwest  Level FlightAware Approximate
11:45AM 53.5419 139.6369 225° Southwest  Level FlightAware Approximate
11:46AM 53.4482 139.4806 225° Southwest  Level FlightAware Approximate
11:47AM 53.3544 139.3250 225° Southwest  Level FlightAware Approximate
11:48AM 53.2603 139.1700 225° Southwest  Level FlightAware Approximate
11:49AM 53.1661 139.0158 224° Southwest  Level FlightAware Approximate
11:50AM 53.0717 138.8622 224° Southwest  Level FlightAware Approximate
11:51AM 52.9770 138.7094 224° Southwest  Level FlightAware Approximate
11:52AM 52.8822 138.5571 224° Southwest  Level FlightAware Approximate
11:53AM 52.7872 138.4056 224° Southwest  Level FlightAware Approximate
11:54AM 52.6919 138.2547 224° Southwest  Level FlightAware Approximate
11:55AM 52.5965 138.1045 224° Southwest  Level FlightAware Approximate
11:56AM 52.5009 137.9549 224° Southwest  Level FlightAware Approximate
11:57AM 52.4051 137.8060 224° Southwest  Level FlightAware Approximate
11:58AM 52.3092 137.6577 223° Southwest  Level FlightAware Approximate
11:59AM 52.2130 137.5100 223° Southwest  Level FlightAware Approximate
12:00PM 52.1167 137.3630 223° Southwest  Level FlightAware Approximate
12:01PM 52.0201 137.2167 223° Southwest  Level FlightAware Approximate
12:02PM 51.9234 137.0709 223° Southwest  Level FlightAware Approximate
12:03PM 51.8266 136.9258 223° Southwest  Level FlightAware Approximate
12:04PM 51.7295 136.7813 223° Southwest  Level FlightAware Approximate
12:05PM 51.6323 136.6375 223° Southwest  Level FlightAware Approximate
12:06PM 51.5349 136.4942 222° Southwest  Level FlightAware Approximate
12:07PM 51.4373 136.3516 222° Southwest  Level FlightAware Approximate
12:08PM 51.3395 136.2095 222° Southwest  Level FlightAware Approximate
12:09PM 51.2416 136.0681 222° Southwest  Level FlightAware Approximate
12:10PM 51.1435 135.9273 222° Southwest  Level FlightAware Approximate
12:11PM 51.0452 135.7870 222° Southwest  Level FlightAware Approximate
12:12PM 50.9468 135.6474 222° Southwest  Level FlightAware Approximate
12:13PM 50.8482 135.5084 222° Southwest  Level FlightAware Approximate
12:14PM 50.7494 135.3699 222° Southwest  Level FlightAware Approximate
12:15PM 50.6505 135.2321 221° Southwest  Level FlightAware Approximate
12:16PM 50.5514 135.0948 221° Southwest  Level FlightAware Approximate
12:17PM 50.4521 134.9580 221° Southwest  Level FlightAware Approximate
12:18PM 50.3527 134.8219 221° Southwest  Level FlightAware Approximate
12:19PM 50.2532 134.6863 221° Southwest  Level FlightAware Approximate
12:20PM 50.1534 134.5513 221° Southwest  Level FlightAware Approximate
12:21PM 50.0536 134.4169 221° Southwest  Level FlightAware Approximate
12:22PM 49.9535 134.2830 221° Southwest  Level FlightAware Approximate
12:23PM 49.8533 134.1497 221° Southwest  Level FlightAware Approximate
12:24PM 49.7530 134.0169 221° Southwest  Level FlightAware Approximate
12:25PM 49.6525 133.8846 220° Southwest  Level FlightAware Approximate
12:26PM 49.5519 133.7530 220° Southwest  Level FlightAware Approximate
12:27PM 49.4511 133.6218 220° Southwest  Level FlightAware Approximate
12:28PM 49.3501 133.4912 220° Southwest  Level FlightAware Approximate
12:29PM 49.2490 133.3612 220° Southwest  Level FlightAware Approximate
12:30PM 49.1478 133.2316 220° Southwest  Level FlightAware Approximate
12:31PM 49.0464 133.1026 220° Southwest  Level FlightAware Approximate
12:32PM 48.9449 132.9741 220° Southwest  Level FlightAware Approximate
12:33PM 48.8433 132.8462 220° Southwest  Level FlightAware Approximate
12:34PM 48.7415 132.7187 220° Southwest  Level FlightAware Approximate
12:35PM 48.6395 132.5918 219° Southwest  Level FlightAware Approximate
12:36PM 48.5374 132.4654 219° Southwest  Level FlightAware Approximate
12:37PM 48.4352 132.3395 219° Southwest  Level FlightAware Approximate
12:38PM 48.3329 132.2141 219° Southwest  Level FlightAware Approximate
12:39PM 48.2304 132.0892 219° Southwest  Level FlightAware Approximate
12:40PM 48.1278 131.9648 219° Southwest  Level FlightAware Approximate
12:41PM 48.0250 131.8409 219° Southwest  Level FlightAware Approximate
12:42PM 47.9221 131.7175 219° Southwest  Level FlightAware Approximate
12:43PM 47.8191 131.5945 219° Southwest  Level FlightAware Approximate
12:44PM 47.7159 131.4721 219° Southwest  Level FlightAware Approximate
12:45PM 47.6127 131.3502 219° Southwest  Level FlightAware Approximate
12:46PM 47.5092 131.2287 218° Southwest  Level FlightAware Approximate
12:47PM 47.4057 131.1077 218° Southwest  Level FlightAware Approximate
12:48PM 47.3020 130.9872 218° Southwest  Level FlightAware Approximate
12:49PM 47.1982 130.8672 218° Southwest  Level FlightAware Approximate
12:50PM 47.0943 130.7476 218° Southwest  Level FlightAware Approximate
12:51PM 46.9903 130.6285 218° Southwest  Level FlightAware Approximate
12:52PM 46.8861 130.5099 218° Southwest  Level FlightAware Approximate
12:53PM 46.8097 130.3612 249° West  Level FlightAware Approximate
12:54PM 46.7617 130.1817 249° West  Level FlightAware Approximate
12:55PM 46.7135 130.0025 249° West  Level FlightAware Approximate
12:56PM 46.6650 129.8236 248° West  Level FlightAware Approximate
12:57PM 46.6161 129.6450 248° West  Level FlightAware Approximate
12:58PM 46.5670 129.4668 248° West  Level FlightAware Approximate
12:59PM 46.5177 129.2889 248° West  Level FlightAware Approximate
01:00PM 46.4680 129.1113 248° West  Level FlightAware Approximate
01:01PM 46.4181 128.9341 248° West  Level FlightAware Approximate
01:02PM 46.3679 128.7571 248° West  Level FlightAware Approximate
01:03PM 46.3174 128.5805 248° West  Level FlightAware Approximate
01:04PM 46.2667 128.4042 247° West  Level FlightAware Approximate
01:05PM 46.2156 128.2283 247° West  Level FlightAware Approximate
01:06PM 46.1644 128.0526 247° West  Level FlightAware Approximate
01:07PM 46.1128 127.8773 247° West  Level FlightAware Approximate
01:08PM 46.0610 127.7024 247° West  Level FlightAware Approximate
01:09PM 46.0089 127.5277 247° West  Level FlightAware Approximate
01:10PM 45.9566 127.3534 247° West  Level FlightAware Approximate
01:11PM 45.9039 127.1794 247° West  Level FlightAware Approximate
01:12PM 45.8511 127.0058 246° West  Level FlightAware Approximate
01:13PM 45.7979 126.8325 246° West  Level FlightAware Approximate
01:14PM 45.7445 126.6595 246° West  Level FlightAware Approximate
01:15PM 45.6909 126.4868 246° West  Level FlightAware Approximate
01:16PM 45.6369 126.3145 246° West  Level FlightAware Approximate
01:17PM 45.5542 126.3272 139° Southeast  Level FlightAware Approximate
01:18PM 45.4543 126.4502 139° Southeast  Level FlightAware Approximate
01:19PM 45.3543 126.5727 139° Southeast  Level FlightAware Approximate
01:20PM 45.2542 126.6949 139° Southeast  Level FlightAware Approximate
01:21PM 45.1539 126.8166 139° Southeast  Level FlightAware Approximate
01:22PM 45.0535 126.9379 140° Southeast  Level FlightAware Approximate
01:23PM 44.9529 127.0587 140° Southeast  Level FlightAware Approximate
01:24PM 44.8522 127.1792 140° Southeast  Level FlightAware Approximate
01:25PM 44.7514 127.2992 140° Southeast  Level FlightAware Approximate
01:26PM 44.6505 127.4188 140° Southeast  Level FlightAware Approximate
01:27PM 44.5494 127.5380 140° Southeast  Level FlightAware Approximate
01:28PM 44.4483 127.6567 140° Southeast  Level FlightAware Approximate
01:29PM 44.3470 127.7751 140° Southeast  Level FlightAware Approximate
01:30PM 44.2456 127.8930 140° Southeast  Level FlightAware Approximate
01:31PM 44.1440 128.0106 140° Southeast  Level FlightAware Approximate
01:32PM 44.0424 128.1277 140° Southeast  Level FlightAware Approximate
01:33PM 43.9406 128.2444 140° Southeast  Level FlightAware Approximate
01:34PM 43.8387 128.3608 141° Southeast  Level FlightAware Approximate
01:35PM 43.7367 128.4767 141° Southeast  Level FlightAware Approximate
01:36PM 43.6345 128.5923 141° Southeast  Level FlightAware Approximate
01:37PM 43.5313 128.7058 142° Southeast  Level FlightAware Approximate
01:38PM 43.4271 128.8173 142° Southeast  Level FlightAware Approximate
01:39PM 43.3228 128.9285 142° Southeast  Level FlightAware Approximate
01:40PM 43.2183 129.0392 142° Southeast  Level FlightAware Approximate
01:41PM 43.1138 129.1496 142° Southeast  Level FlightAware Approximate
01:42PM 43.0098 129.2608 141° Southeast  Level FlightAware Approximate
01:43PM 42.9068 129.3736 141° Southeast  Level FlightAware Approximate
01:44PM 42.8038 129.4859 141° Southeast  Level FlightAware Approximate
01:45PM 42.7006 129.5979 141° Southeast  Level FlightAware Approximate
01:46PM 42.5973 129.7095 141° Southeast  Level FlightAware Approximate
01:47PM 42.4939 129.8208 142° Southeast  Level FlightAware Approximate
01:48PM 42.3904 129.9317 142° Southeast  Level FlightAware Approximate
01:49PM 42.2867 130.0422 142° Southeast  Level FlightAware Approximate
01:50PM 42.1830 130.1524 142° Southeast  Level FlightAware Approximate
01:51PM 42.0792 130.2622 142° Southeast  Level FlightAware Approximate
01:52PM 41.9752 130.3716 142° Southeast  Level FlightAware Approximate
01:53PM 41.8712 130.4807 142° Southeast  Level FlightAware Approximate
01:54PM 41.7670 130.5894 142° Southeast  Level FlightAware Approximate
01:55PM 41.6628 130.6978 142° Southeast  Level FlightAware Approximate
01:56PM 41.5584 130.8059 142° Southeast  Level FlightAware Approximate
01:57PM 41.4540 130.9135 142° Southeast  Level FlightAware Approximate
01:58PM 41.3493 131.0207 142° Southeast  Level FlightAware Approximate
01:59PM 41.2446 131.1276 142° Southeast  Level FlightAware Approximate
02:00PM 41.1398 131.2341 143° Southeast  Level FlightAware Approximate
02:01PM 41.0349 131.3403 143° Southeast  Level FlightAware Approximate
02:02PM 40.9299 131.4461 143° Southeast  Level FlightAware Approximate
02:03PM 40.8247 131.5516 143° Southeast  Level FlightAware Approximate
02:04PM 40.7195 131.6568 143° Southeast  Level FlightAware Approximate
02:05PM 40.6142 131.7616 143° Southeast  Level FlightAware Approximate
02:06PM 40.5088 131.8661 143° Southeast  Level FlightAware Approximate
02:07PM 40.4034 131.9703 143° Southeast  Level FlightAware Approximate
02:08PM 40.2978 132.0741 143° Southeast  Level FlightAware Approximate
02:09PM 40.1921 132.1777 143° Southeast  Level FlightAware Approximate
02:10PM 40.0863 132.2809 143° Southeast  Level FlightAware Approximate
02:11PM 39.9806 132.3840 143° Southeast  Level FlightAware Approximate
02:12PM 39.8748 132.4869 143° Southeast  Level FlightAware Approximate
02:13PM 39.7690 132.5895 143° Southeast  Level FlightAware Approximate
02:14PM 39.6631 132.6918 143° Southeast  Level FlightAware Approximate
02:15PM 39.5570 132.7937 143° Southeast  Level FlightAware Approximate
02:16PM 39.4509 132.8954 144° Southeast  Level FlightAware Approximate
02:17PM 39.3447 132.9967 144° Southeast  Level FlightAware Approximate
02:18PM 39.2384 133.0977 144° Southeast  Level FlightAware Approximate
02:19PM 39.1320 133.1985 144° Southeast  Level FlightAware Approximate
02:20PM 39.0255 133.2989 144° Southeast  Level FlightAware Approximate
02:21PM 38.9190 133.3990 144° Southeast  Level FlightAware Approximate
02:22PM 38.8123 133.4988 144° Southeast  Level FlightAware Approximate
02:23PM 38.7056 133.5983 144° Southeast  Level FlightAware Approximate
02:24PM 38.5987 133.6974 144° Southeast  Level FlightAware Approximate
02:25PM 38.4917 133.7960 144° Southeast  Level FlightAware Approximate
02:26PM 38.3845 133.8944 144° Southeast  Level FlightAware Approximate
02:27PM 38.2773 133.9924 144° Southeast  Level FlightAware Approximate
02:28PM 38.1700 134.0902 144° Southeast  Level FlightAware Approximate
02:29PM 38.0626 134.1877 144° Southeast  Level FlightAware Approximate
02:30PM 37.9552 134.2849 144° Southeast  Level FlightAware Approximate
02:31PM 37.8476 134.3818 145° Southeast  Level FlightAware Approximate
02:33PM 37.6197 134.5860 145° Southeast  Level FlightAware Approximate
02:35PM 37.4167 134.7666 145° Southeast  Level FlightAware Approximate
02:36PM 37.3087 134.8622 145° Southeast  Level FlightAware Approximate
02:37PM 37.2007 134.9574 145° Southeast  Level FlightAware Approximate
02:38PM 37.0927 135.0524 145° Southeast  Level FlightAware Approximate
02:39PM 36.9845 135.1471 145° Southeast  Level FlightAware Approximate
02:40PM 36.8763 135.2415 145° Southeast  Level FlightAware Approximate
02:41PM 36.7679 135.3357 145° Southeast  Level FlightAware Approximate
02:42PM 36.6596 135.4296 145° Southeast  Level FlightAware Approximate
02:43PM 36.5511 135.5232 145° Southeast  Level FlightAware Approximate
02:44PM 36.4426 135.6165 145° Southeast  Level FlightAware Approximate
02:45PM 36.3340 135.7097 145° Southeast  Level FlightAware Approximate
02:46PM 36.2253 135.8025 145° Southeast  Level FlightAware Approximate
02:47PM 36.1166 135.8951 145° Southeast  Level FlightAware Approximate
02:48PM 36.0077 135.9874 146° Southeast  Level FlightAware Approximate
02:49PM 35.8988 136.0795 146° Southeast  Level FlightAware Approximate
02:50PM 35.7899 136.1713 146° Southeast  Level FlightAware Approximate
02:51PM 35.6809 136.2629 146° Southeast  Level FlightAware Approximate
02:52PM 35.5729 136.3561 146° Southeast  Level FlightAware Approximate
02:53PM 35.4639 136.4475 146° Southeast  Level FlightAware Approximate
02:54PM 35.3549 136.5387 146° Southeast  Level FlightAware Approximate
02:55PM 35.2458 136.6296 146° Southeast  Level FlightAware Approximate
02:56PM 35.1366 136.7203 146° Southeast  Level FlightAware Approximate
02:57PM 35.0274 136.8107 146° Southeast  Level FlightAware Approximate
02:58PM 34.9157 136.8966 148° Southeast  Level FlightAware Approximate
02:59PM 34.8897 136.8471 288° West  Level FlightAware Approximate
03:00PM 34.9305 136.6941 288° West  Level FlightAware Approximate
03:01PM 34.9770 136.5435 291° West  Level FlightAware Approximate
03:02PM 35.0238 136.3928 291° West  Level FlightAware Approximate
03:03PM 35.0704 136.2420 291° West  Level FlightAware Approximate
03:04PM 35.1190 136.0921 290° West  Level FlightAware Approximate
03:05PM 35.1644 135.9406 290° West  Level FlightAware Approximate
03:06PM 35.2095 135.7889 290° West  Level FlightAware Approximate
03:07PM 35.2545 135.6370 290° West  Level FlightAware Approximate
03:08PM 35.2992 135.4849 290° West  Level FlightAware Approximate
03:09PM 35.3438 135.3327 290° West  Level FlightAware Approximate
03:10PM 35.3882 135.1803 290° West  Level FlightAware Approximate
03:11PM 35.4324 135.0278 290° West  Level FlightAware Approximate
03:12PM 35.4734 134.8738 287° West  Level FlightAware Approximate
03:13PM 35.5121 134.7189 287° West  Level FlightAware Approximate
03:14PM 35.5508 134.5639 289° West  Level FlightAware Approximate
03:15PM 35.5939 134.4105 289° West  Level FlightAware Approximate
03:16PM 35.6368 134.2570 289° West  Level FlightAware Approximate
03:17PM 35.6795 134.1034 289° West  Level FlightAware Approximate
03:18PM 35.7220 133.9495 289° West  Level FlightAware Approximate
03:19PM 35.7643 133.7955 289° West  Level FlightAware Approximate
03:20PM 35.8064 133.6414 289° West  Level FlightAware Approximate
03:21PM 35.8483 133.4871 289° West  Level FlightAware Approximate
03:22PM 35.8900 133.3326 288° West  Level FlightAware Approximate
03:23PM 35.9316 133.1779 288° West  Level FlightAware Approximate
03:24PM 35.9729 133.0231 288° West  Level FlightAware Approximate
03:25PM 36.0140 132.8681 288° West  Level FlightAware Approximate
03:26PM 36.0550 132.7130 288° West  Level FlightAware Approximate
03:27PM 36.0957 132.5577 288° West  Level FlightAware Approximate
03:28PM 36.1362 132.4023 288° West  Level FlightAware Approximate
03:29PM 36.1765 132.2467 288° West  Level FlightAware Approximate
03:30PM 36.2166 132.0909 288° West  Level FlightAware Approximate
03:31PM 36.2565 131.9350 288° West  Level FlightAware Approximate
03:32PM 36.2963 131.7789 288° West  Level FlightAware Approximate
03:33PM 36.3358 131.6226 287° West  Level FlightAware Approximate
03:34PM 36.3751 131.4662 287° West  Level FlightAware Approximate
03:35PM 36.4146 131.3098 287° West  Level FlightAware Approximate
03:36PM 36.4539 131.1532 287° West  Level FlightAware Approximate
03:37PM 36.4930 130.9965 287° West  Level FlightAware Approximate
03:38PM 36.5320 130.8396 287° West  Level FlightAware Approximate
03:39PM 36.5707 130.6826 287° West  Level FlightAware Approximate
03:40PM 36.6092 130.5254 287° West  Level FlightAware Approximate
03:41PM 36.6475 130.3681 287° West  Level FlightAware Approximate
03:42PM 36.6857 130.2106 287° West  Level FlightAware Approximate
03:43PM 36.7236 130.0529 287° West  Level FlightAware Approximate
03:44PM 36.7612 129.8951 287° West  Level FlightAware Approximate
03:45PM 36.7987 129.7372 287° West  Level FlightAware Approximate
03:46PM 36.8360 129.5791 286° West  Level FlightAware Approximate
03:47PM 36.8731 129.4208 286° West  Level FlightAware Approximate
03:48PM 36.9099 129.2623 286° West  Level FlightAware Approximate
03:49PM 36.9461 129.1036 286° West  Level FlightAware Approximate
03:50PM 36.9819 128.9446 286° West  Level FlightAware Approximate
03:51PM 37.0174 128.7855 286° West  Level FlightAware Approximate
03:52PM 37.0528 128.6263 286° West  Level FlightAware Approximate
03:53PM 37.0880 128.4669 286° West  Level FlightAware Approximate
03:54PM 37.1229 128.3073 285° West  Level FlightAware Approximate
03:55PM 37.1576 128.1476 285° West  Level FlightAware Approximate
03:56PM 37.1922 127.9878 285° West  Level FlightAware Approximate
03:57PM 37.2265 127.8278 285° West  Level FlightAware Approximate
03:58PM 37.2605 127.6676 285° West  Level FlightAware Approximate
03:59PM 37.2944 127.5074 285° West  Level FlightAware Approximate
04:00PM 37.3281 127.3469 285° West  Level FlightAware Approximate
04:01PM 37.3615 127.1864 285° West  Level FlightAware Approximate
04:02PM 37.3947 127.0257 285° West  Level FlightAware Approximate
04:03PM 37.4281 126.8649 285° West  Level FlightAware Approximate
04:04PM 37.4612 126.7041 285° West  Level FlightAware Approximate
04:05PM 37.4942 126.5431 285° West  Level FlightAware Approximate
04:06PM 37.5269 126.3819 284° West  Level FlightAware Approximate
04:07PM 37.5595 126.2206 284° West  Level FlightAware Approximate
04:08PM 37.5918 126.0592 284° West  Level FlightAware Approximate
04:09PM 37.6239 125.8976 284° West  Level FlightAware Approximate
04:10PM 37.6557 125.7359 284° West  Level FlightAware Approximate
04:11PM 37.6874 125.5741 284° West  Level FlightAware Approximate
04:12PM 37.7188 125.4121 284° West  Level FlightAware Approximate
04:13PM 37.7500 125.2500 284° West  Level FlightAware Approximate
04:14PM 37.7810 125.0877 284° West  Level FlightAware Approximate
04:15PM 37.8117 124.9253 284° West  Level FlightAware Approximate
04:16PM 37.8423 124.7628 283° West  Level FlightAware Approximate
04:17PM 37.8726 124.6001 283° West  Level FlightAware Approximate
04:18PM 37.9027 124.4373 283° West  Level FlightAware Approximate
04:19PM 37.9325 124.2744 283° West  Level FlightAware Approximate
04:20PM 37.9622 124.1113 283° West  Level FlightAware Approximate
04:21PM 37.9916 123.9482 283° West  Level FlightAware Approximate
04:22PM 38.0208 123.7848 283° West  Level FlightAware Approximate
04:23PM 38.0497 123.6214 283° West  Level FlightAware Approximate
04:24PM 38.0785 123.4578 283° West  Level FlightAware Approximate
04:25PM 38.1070 123.2941 283° West  Level FlightAware Approximate
04:26PM 38.1353 123.1302 282° West  Level FlightAware Approximate
04:27PM 38.1633 122.9663 282° West  Level FlightAware Approximate
04:28PM 38.1911 122.8022 282° West  Level FlightAware Approximate
04:29PM 38.2187 122.6380 282° West  Level FlightAware Approximate
04:30PM 38.2461 122.4736 282° West  Level FlightAware Approximate
04:31PM 38.1705 122.5521 135° Southeast  Level FlightAware Approximate
04:32PM 38.0775 122.6711 135° Southeast  Level FlightAware Approximate
04:33PM 37.9844 122.7898 135° Southeast  Level FlightAware Approximate
04:34PM 37.8911 122.9082 135° Southeast  Level FlightAware Approximate
04:35PM 37.7978 123.0263 135° Southeast  Level FlightAware Approximate
04:36PM 37.7043 123.1441 135° Southeast  Level FlightAware Approximate
04:37PM 37.6107 123.2616 135° Southeast  Level FlightAware Approximate
04:38PM 37.4968 123.3216 177° South  Level FlightAware Approximate
04:39PM 37.3651 123.3308 177° South  Level FlightAware Approximate
04:40PM 37.2333 123.3400 177° South  Level FlightAware Approximate
04:41PM 37.1016 123.3492 177° South  Level FlightAware Approximate
04:42PM 36.9698 123.3584 177° South  Level FlightAware Approximate
04:43PM 36.8381 123.3672 178° South  Level FlightAware Approximate
04:44PM 36.7062 123.3733 178° South  Level FlightAware Approximate
04:45PM 36.5743 123.3793 178° South  Level FlightAware Approximate
04:46PM 36.4424 123.3854 178° South  Level FlightAware Approximate
04:47PM 36.3106 123.3914 178° South  Level FlightAware Approximate
04:48PM 36.1787 123.3974 178° South  Level FlightAware Approximate
04:49PM 36.0468 123.4033 178° South  Level FlightAware Approximate
04:50PM 35.9150 123.4093 178° South  Level FlightAware Approximate
04:51PM 35.7831 123.4152 178° South  Level FlightAware Approximate
04:52PM 35.6512 123.4211 178° South  Level FlightAware Approximate
04:53PM 35.5193 123.4270 178° South  Level FlightAware Approximate
04:54PM 35.3875 123.4329 178° South  Level FlightAware Approximate
04:55PM 35.2556 123.4387 178° South  Level FlightAware Approximate
04:56PM 35.1237 123.4445 178° South  Level FlightAware Approximate
04:57PM 34.9919 123.4501 179° South  Level FlightAware Approximate
04:58PM 34.8599 123.4517 179° South  Level FlightAware Approximate
04:59PM 34.7280 123.4533 179° South  Level FlightAware Approximate
05:00PM 34.5960 123.4548 179° South  Level FlightAware Approximate
05:01PM 34.4641 123.4564 179° South  Level FlightAware Approximate
05:02PM 34.3321 123.4580 179° South  Level FlightAware Approximate
05:03PM 34.2002 123.4595 179° South  Level FlightAware Approximate
05:04PM 34.0682 123.4611 179° South  Level FlightAware Approximate
05:05PM 33.9363 123.4626 179° South  Level FlightAware Approximate
05:06PM 33.8043 123.4642 179° South  Level FlightAware Approximate
05:07PM 33.6724 123.4657 179° South  Level FlightAware Approximate
05:08PM 33.5404 123.4672 179° South  Level FlightAware Approximate
05:09PM 33.4085 123.4688 179° South  Level FlightAware Approximate
05:10PM 33.2765 123.4703 179° South  Level FlightAware Approximate
05:11PM 33.1446 123.4718 179° South  Level FlightAware Approximate
05:12PM 33.0126 123.4734 179° South  Level FlightAware Approximate
05:13PM 32.8807 123.4749 179° South  Level FlightAware Approximate
05:14PM 32.7487 123.4764 179° South  Level FlightAware Approximate
05:15PM 32.6168 123.4779 179° South  Level FlightAware Approximate
05:16PM 32.4848 123.4794 179° South  Level FlightAware Approximate
05:17PM 32.3529 123.4809 179° South  Level FlightAware Approximate
05:18PM 32.2209 123.4824 179° South  Level FlightAware Approximate
05:19PM 32.0890 123.4833 180° South  Level FlightAware Approximate
05:20PM 31.9570 123.4833 180° South  Level FlightAware Approximate
05:21PM 31.8251 123.4833 180° South  Level FlightAware Approximate
05:22PM 31.6931 123.4833 180° South  Level FlightAware Approximate
05:23PM 31.5612 123.4833 180° South  Level FlightAware Approximate
05:24PM 31.4851 123.4251 257° West  Level FlightAware Approximate
05:25PM 31.4549 123.2745 257° West  Level FlightAware Approximate
05:26PM 31.4231 123.1244 256° West  Level FlightAware Approximate
05:27PM 31.3916 122.9743 257° West  Level FlightAware Approximate
05:28PM 31.3615 122.8238 257° West  Level FlightAware Approximate
05:29PM 31.3365 122.6722 261° West  Level FlightAware Approximate
05:30PM 31.3099 122.5209 258° West  Level FlightAware Approximate
05:31PM 31.2808 122.3703 257° West  Level FlightAware Approximate
05:32PM 31.2507 122.2200 257° West  Level FlightAware Approximate
05:33PM 31.2213 122.0704 262° West  Level FlightAware Approximate
05:34PM 31.1818 121.9241 259° West  Level FlightAware Approximate
05:35PM 31.1428 121.7924 270° West  Level Estimated
05:36PM 31.1428 121.7924 157° South  Level Estimated
05:37PM 31.1428 121.7924 157° South  Level Estimated
05:38PM 31.1428 121.7924 157° South  Level Estimated
05:39PM 31.1428 121.7924 157° South  Level Estimated
05:40PM 31.1428 121.7924 157° South  Level Estimated
05:41PM 31.1428 121.7924 157° South  Level Estimated
05:42PM 31.1428 121.7924 157° South  Level Estimated
05:43PM 31.1428 121.7924 157° South  Level Estimated
05:44PM 31.1428 121.7924 157° South  Level Estimated
05:45PM 31.1428 121.7924 157° South  Level Estimated
05:46PM 31.1428 121.7924 157° South  Level Estimated
05:47PM 31.1428 121.7924 157° South  Level Estimated
05:48PM 31.1428 121.7924 157° South  Level Estimated
05:49PM 31.1428 121.7924 157° South  Level Estimated
05:50PM 31.1428 121.7924 157° South  Level Estimated
05:51PM 31.1428 121.7924 157° South  Level Estimated
05:52PM 31.1428 121.7924 157° South  Level Estimated
05:53PM 31.1428 121.7924 157° South  Level Estimated
05:54PM 31.1428 121.7924 157° South  Level Estimated
05:55PM 31.1428 121.7924 157° South  Level Estimated
05:56PM 31.1428 121.7924 157° South  Level Estimated
05:57PM 31.1428 121.7924 157° South  Level Estimated
05:58PM 31.1428 121.7924 157° South  Level Estimated
05:59PM 31.1428 121.7924 157° South  Level Estimated

Login

Don't have an account? Register now (free) for customized features, flight alerts, and more!